sensor_id;sensor_type;location;lat;lon;timestamp;pressure;altitude;pressure_sealevel;temperature;humidity
61035;BME280;46916;40.564;-7.958;2023-04-20T00:00:29;96960.03;;;16.71;68.71
61035;BME280;46916;40.564;-7.958;2023-04-20T00:02:30;96969.00;;;16.70;68.39
61035;BME280;46916;40.564;-7.958;2023-04-20T00:04:31;96969.81;;;16.71;68.14
61035;BME280;46916;40.564;-7.958;2023-04-20T00:06:32;96966.50;;;16.69;67.68
61035;BME280;46916;40.564;-7.958;2023-04-20T00:08:33;96963.59;;;16.64;67.67
61035;BME280;46916;40.564;-7.958;2023-04-20T00:10:34;96965.59;;;16.62;67.73
61035;BME280;46916;40.564;-7.958;2023-04-20T00:12:35;96955.72;;;16.55;67.61
61035;BME280;46916;40.564;-7.958;2023-04-20T00:14:36;96945.50;;;16.52;67.82
61035;BME280;46916;40.564;-7.958;2023-04-20T00:16:36;96939.66;;;16.42;68.63
61035;BME280;46916;40.564;-7.958;2023-04-20T00:18:37;96937.66;;;16.44;68.85
61035;BME280;46916;40.564;-7.958;2023-04-20T00:20:38;96928.06;;;16.43;68.98
61035;BME280;46916;40.564;-7.958;2023-04-20T00:22:39;96922.59;;;16.45;69.18
61035;BME280;46916;40.564;-7.958;2023-04-20T00:24:40;96920.81;;;16.45;69.36
61035;BME280;46916;40.564;-7.958;2023-04-20T00:26:41;96918.88;;;16.39;69.75
61035;BME280;46916;40.564;-7.958;2023-04-20T00:28:42;96922.50;;;16.38;69.98
61035;BME280;46916;40.564;-7.958;2023-04-20T00:30:42;96921.31;;;16.41;69.80
61035;BME280;46916;40.564;-7.958;2023-04-20T00:32:43;96923.81;;;16.42;69.81
61035;BME280;46916;40.564;-7.958;2023-04-20T00:34:44;96922.97;;;16.42;69.81
61035;BME280;46916;40.564;-7.958;2023-04-20T00:36:45;96916.69;;;16.43;69.71
61035;BME280;46916;40.564;-7.958;2023-04-20T00:38:46;96913.69;;;16.46;69.56
61035;BME280;46916;40.564;-7.958;2023-04-20T00:40:46;96905.94;;;16.44;69.52
61035;BME280;46916;40.564;-7.958;2023-04-20T00:42:52;96894.06;;;16.40;69.54
61035;BME280;46916;40.564;-7.958;2023-04-20T00:44:53;96894.06;;;16.40;69.21
61035;BME280;46916;40.564;-7.958;2023-04-20T00:46:55;96890.81;;;16.38;69.39
61035;BME280;46916;40.564;-7.958;2023-04-20T00:48:56;96885.41;;;16.31;69.23
61035;BME280;46916;40.564;-7.958;2023-04-20T00:50:58;96885.41;;;16.31;69.18
61035;BME280;46916;40.564;-7.958;2023-04-20T00:52:59;96886.88;;;16.34;69.54
61035;BME280;46916;40.564;-7.958;2023-04-20T00:55:02;96887.22;;;16.31;69.62
61035;BME280;46916;40.564;-7.958;2023-04-20T00:57:03;96882.94;;;16.30;69.77
61035;BME280;46916;40.564;-7.958;2023-04-20T00:59:04;96884.59;;;16.31;69.74
61035;BME280;46916;40.564;-7.958;2023-04-20T01:01:06;96882.75;;;16.31;69.77
61035;BME280;46916;40.564;-7.958;2023-04-20T01:03:06;96879.50;;;16.29;69.69
61035;BME280;46916;40.564;-7.958;2023-04-20T01:05:08;96890.88;;;16.30;69.92
61035;BME280;46916;40.564;-7.958;2023-04-20T01:07:09;96886.94;;;16.26;70.01
61035;BME280;46916;40.564;-7.958;2023-04-20T01:09:10;96886.75;;;16.27;69.75
61035;BME280;46916;40.564;-7.958;2023-04-20T01:11:11;96889.75;;;16.24;69.85
61035;BME280;46916;40.564;-7.958;2023-04-20T01:13:12;96879.56;;;16.21;70.15
61035;BME280;46916;40.564;-7.958;2023-04-20T01:15:13;96885.66;;;16.22;70.21
61035;BME280;46916;40.564;-7.958;2023-04-20T01:17:13;96888.47;;;16.20;70.18
61035;BME280;46916;40.564;-7.958;2023-04-20T01:19:18;96884.03;;;16.21;70.11
61035;BME280;46916;40.564;-7.958;2023-04-20T01:21:21;96886.91;;;16.11;70.46
61035;BME280;46916;40.564;-7.958;2023-04-20T01:23:21;96879.50;;;16.06;70.08
61035;BME280;46916;40.564;-7.958;2023-04-20T01:25:22;96880.31;;;16.07;70.14
61035;BME280;46916;40.564;-7.958;2023-04-20T01:27:23;96886.91;;;16.11;69.67
61035;BME280;46916;40.564;-7.958;2023-04-20T01:29:24;96877.69;;;16.07;69.90
61035;BME280;46916;40.564;-7.958;2023-04-20T01:31:24;96877.69;;;16.07;69.71
61035;BME280;46916;40.564;-7.958;2023-04-20T01:33:25;96882.16;;;16.06;69.96
61035;BME280;46916;40.564;-7.958;2023-04-20T01:35:26;96881.69;;;16.03;69.78
61035;BME280;46916;40.564;-7.958;2023-04-20T01:37:28;96885.78;;;16.05;69.82
61035;BME280;46916;40.564;-7.958;2023-04-20T01:39:28;96873.59;;;16.04;69.81
61035;BME280;46916;40.564;-7.958;2023-04-20T01:41:30;96867.84;;;16.01;69.83
61035;BME280;46916;40.564;-7.958;2023-04-20T01:43:32;96864.25;;;15.94;70.22
61035;BME280;46916;40.564;-7.958;2023-04-20T01:45:33;96868.06;;;15.91;70.26
61035;BME280;46916;40.564;-7.958;2023-04-20T01:47:34;96866.63;;;15.89;70.34
61035;BME280;46916;40.564;-7.958;2023-04-20T01:49:35;96861.50;;;15.87;70.54
61035;BME280;46916;40.564;-7.958;2023-04-20T01:51:36;96846.84;;;15.84;70.58
61035;BME280;46916;40.564;-7.958;2023-04-20T01:53:36;96847.47;;;15.87;70.61
61035;BME280;46916;40.564;-7.958;2023-04-20T01:55:37;96835.63;;;15.82;70.83
61035;BME280;46916;40.564;-7.958;2023-04-20T01:57:38;96844.84;;;15.87;71.12
61035;BME280;46916;40.564;-7.958;2023-04-20T01:59:38;96853.75;;;15.85;71.16
61035;BME280;46916;40.564;-7.958;2023-04-20T02:01:39;96847.53;;;15.78;71.36
61035;BME280;46916;40.564;-7.958;2023-04-20T02:03:40;96847.72;;;15.77;71.62
61035;BME280;46916;40.564;-7.958;2023-04-20T02:05:41;96849.69;;;15.75;71.92
61035;BME280;46916;40.564;-7.958;2023-04-20T02:07:41;96852.34;;;15.75;71.78
61035;BME280;46916;40.564;-7.958;2023-04-20T02:09:42;96851.19;;;15.77;71.53
61035;BME280;46916;40.564;-7.958;2023-04-20T02:11:43;96844.25;;;15.76;71.43
61035;BME280;46916;40.564;-7.958;2023-04-20T02:13:45;96850.38;;;15.77;71.38
61035;BME280;46916;40.564;-7.958;2023-04-20T02:15:45;96848.88;;;15.74;72.67
61035;BME280;46916;40.564;-7.958;2023-04-20T02:17:46;96850.72;;;15.74;71.57
61035;BME280;46916;40.564;-7.958;2023-04-20T02:19:51;96853.16;;;15.75;71.84
61035;BME280;46916;40.564;-7.958;2023-04-20T02:21:52;96831.59;;;15.72;71.95
61035;BME280;46916;40.564;-7.958;2023-04-20T02:23:53;96841.31;;;15.71;72.18
61035;BME280;46916;40.564;-7.958;2023-04-20T02:25:53;96842.16;;;15.72;72.37
61035;BME280;46916;40.564;-7.958;2023-04-20T02:27:54;96832.59;;;15.63;72.71
61035;BME280;46916;40.564;-7.958;2023-04-20T02:29:55;96835.75;;;15.58;72.77
61035;BME280;46916;40.564;-7.958;2023-04-20T02:31:56;96829.09;;;15.47;73.11
61035;BME280;46916;40.564;-7.958;2023-04-20T02:33:57;96831.06;;;15.45;73.09
61035;BME280;46916;40.564;-7.958;2023-04-20T02:36:01;96820.09;;;15.33;72.83
61035;BME280;46916;40.564;-7.958;2023-04-20T02:38:01;96820.38;;;15.39;73.09
61035;BME280;46916;40.564;-7.958;2023-04-20T02:40:02;96819.22;;;15.41;72.88
61035;BME280;46916;40.564;-7.958;2023-04-20T02:42:04;96820.84;;;15.42;72.86
61035;BME280;46916;40.564;-7.958;2023-04-20T02:44:05;96821.34;;;15.46;72.79
61035;BME280;46916;40.564;-7.958;2023-04-20T02:46:09;96818.34;;;15.49;72.93
61035;BME280;46916;40.564;-7.958;2023-04-20T02:48:10;96830.38;;;15.51;72.50
61035;BME280;46916;40.564;-7.958;2023-04-20T02:50:11;96833.03;;;15.51;72.55
61035;BME280;46916;40.564;-7.958;2023-04-20T02:52:29;96843.22;;;15.54;73.07
61035;BME280;46916;40.564;-7.958;2023-04-20T02:54:33;96842.59;;;15.52;73.50
61035;BME280;46916;40.564;-7.958;2023-04-20T02:56:34;96847.50;;;15.55;73.35
61035;BME280;46916;40.564;-7.958;2023-04-20T02:58:39;96838.13;;;15.53;72.74
61035;BME280;46916;40.564;-7.958;2023-04-20T03:00:49;96844.03;;;15.55;73.16
61035;BME280;46916;40.564;-7.958;2023-04-20T03:02:51;96853.13;;;15.52;72.92
61035;BME280;46916;40.564;-7.958;2023-04-20T03:04:52;96844.56;;;15.50;73.01
61035;BME280;46916;40.564;-7.958;2023-04-20T03:06:54;96849.50;;;15.53;73.42
61035;BME280;46916;40.564;-7.958;2023-04-20T03:09:01;96848.50;;;15.54;73.60
61035;BME280;46916;40.564;-7.958;2023-04-20T03:11:20;96845.50;;;15.57;73.57
61035;BME280;46916;40.564;-7.958;2023-04-20T03:13:21;96840.41;;;15.56;74.42
61035;BME280;46916;40.564;-7.958;2023-04-20T03:15:31;96842.06;;;15.57;73.60
61035;BME280;46916;40.564;-7.958;2023-04-20T03:17:50;96835.28;;;15.54;73.25
61035;BME280;46916;40.564;-7.958;2023-04-20T03:19:51;96841.56;;;15.53;73.64
61035;BME280;46916;40.564;-7.958;2023-04-20T03:21:51;96831.03;;;15.53;73.72
61035;BME280;46916;40.564;-7.958;2023-04-20T03:23:52;96837.31;;;15.52;73.93
61035;BME280;46916;40.564;-7.958;2023-04-20T03:25:53;96834.66;;;15.52;74.06
61035;BME280;46916;40.564;-7.958;2023-04-20T03:28:26;96838.13;;;15.53;74.56
61035;BME280;46916;40.564;-7.958;2023-04-20T03:30:27;96841.38;;;15.55;74.42
61035;BME280;46916;40.564;-7.958;2023-04-20T03:32:35;96838.75;;;15.55;74.46
61035;BME280;46916;40.564;-7.958;2023-04-20T03:34:37;96838.94;;;15.53;74.46
61035;BME280;46916;40.564;-7.958;2023-04-20T03:36:39;96840.56;;;15.54;74.63
61035;BME280;46916;40.564;-7.958;2023-04-20T03:38:39;96842.59;;;15.52;74.16
61035;BME280;46916;40.564;-7.958;2023-04-20T03:40:40;96842.91;;;15.49;73.92
61035;BME280;46916;40.564;-7.958;2023-04-20T03:42:41;96837.00;;;15.47;74.07
61035;BME280;46916;40.564;-7.958;2023-04-20T03:44:42;96833.91;;;15.44;74.45
61035;BME280;46916;40.564;-7.958;2023-04-20T03:46:43;96830.25;;;15.45;73.93
61035;BME280;46916;40.564;-7.958;2023-04-20T03:48:44;96827.81;;;15.43;73.68
61035;BME280;46916;40.564;-7.958;2023-04-20T03:50:45;96830.44;;;15.43;74.79
61035;BME280;46916;40.564;-7.958;2023-04-20T03:52:46;96835.72;;;15.43;74.16
61035;BME280;46916;40.564;-7.958;2023-04-20T03:54:46;96831.25;;;15.44;73.44
61035;BME280;46916;40.564;-7.958;2023-04-20T03:56:49;96830.50;;;15.35;73.25
61035;BME280;46916;40.564;-7.958;2023-04-20T03:58:51;96837.97;;;15.23;74.43
61035;BME280;46916;40.564;-7.958;2023-04-20T04:01:03;96844.38;;;15.29;74.77
61035;BME280;46916;40.564;-7.958;2023-04-20T04:03:07;96839.09;;;15.29;74.11
61035;BME280;46916;40.564;-7.958;2023-04-20T04:05:08;96842.06;;;15.26;73.71
61035;BME280;46916;40.564;-7.958;2023-04-20T04:07:08;96842.88;;;15.26;73.48
61035;BME280;46916;40.564;-7.958;2023-04-20T04:09:11;96843.72;;;15.27;73.52
61035;BME280;46916;40.564;-7.958;2023-04-20T04:11:12;96839.78;;;15.23;73.72
61035;BME280;46916;40.564;-7.958;2023-04-20T04:13:12;96834.34;;;15.24;74.40
61035;BME280;46916;40.564;-7.958;2023-04-20T04:15:13;96833.50;;;15.24;74.51
61035;BME280;46916;40.564;-7.958;2023-04-20T04:17:22;96833.84;;;15.21;74.25
61035;BME280;46916;40.564;-7.958;2023-04-20T04:19:23;96838.13;;;15.22;75.46
61035;BME280;46916;40.564;-7.958;2023-04-20T04:21:24;96831.88;;;15.23;74.70
61035;BME280;46916;40.564;-7.958;2023-04-20T04:23:31;96826.81;;;15.13;74.86
61035;BME280;46916;40.564;-7.958;2023-04-20T04:25:42;96825.66;;;15.16;75.05
61035;BME280;46916;40.564;-7.958;2023-04-20T04:27:45;96839.84;;;15.15;74.57
61035;BME280;46916;40.564;-7.958;2023-04-20T04:29:47;96836.00;;;15.17;75.33
61035;BME280;46916;40.564;-7.958;2023-04-20T04:31:52;96843.78;;;15.19;75.82
61035;BME280;46916;40.564;-7.958;2023-04-20T04:33:54;96843.41;;;15.22;75.36
61035;BME280;46916;40.564;-7.958;2023-04-20T04:36:04;96842.59;;;15.21;75.32
61035;BME280;46916;40.564;-7.958;2023-04-20T04:38:07;96845.06;;;15.23;74.80
61035;BME280;46916;40.564;-7.958;2023-04-20T04:40:09;96846.03;;;15.22;74.40
61035;BME280;46916;40.564;-7.958;2023-04-20T04:42:12;96846.41;;;15.19;74.54
61035;BME280;46916;40.564;-7.958;2023-04-20T04:44:16;96849.69;;;15.21;74.61
61035;BME280;46916;40.564;-7.958;2023-04-20T04:46:17;96847.22;;;15.19;74.46
61035;BME280;46916;40.564;-7.958;2023-04-20T04:48:18;96839.84;;;15.15;74.57
61035;BME280;46916;40.564;-7.958;2023-04-20T04:50:19;96850.69;;;15.20;74.41
61035;BME280;46916;40.564;-7.958;2023-04-20T04:52:21;96853.47;;;15.18;74.46
61035;BME280;46916;40.564;-7.958;2023-04-20T04:54:22;96837.19;;;15.15;74.70
61035;BME280;46916;40.564;-7.958;2023-04-20T04:56:23;96837.34;;;15.13;74.60
61035;BME280;46916;40.564;-7.958;2023-04-20T04:58:24;96843.94;;;15.17;74.81
61035;BME280;46916;40.564;-7.958;2023-04-20T05:00:25;96840.28;;;15.18;74.82
61035;BME280;46916;40.564;-7.958;2023-04-20T05:02:25;96838.31;;;15.20;74.83
61035;BME280;46916;40.564;-7.958;2023-04-20T05:04:26;96835.50;;;15.22;74.90
61035;BME280;46916;40.564;-7.958;2023-04-20T05:06:27;96832.84;;;15.22;75.13
61035;BME280;46916;40.564;-7.958;2023-04-20T05:08:27;96843.06;;;15.25;75.20
61035;BME280;46916;40.564;-7.958;2023-04-20T05:10:28;96842.44;;;15.23;75.07
61035;BME280;46916;40.564;-7.958;2023-04-20T05:12:29;96839.13;;;15.21;75.25
61035;BME280;46916;40.564;-7.958;2023-04-20T05:14:30;96840.47;;;15.17;75.47
61035;BME280;46916;40.564;-7.958;2023-04-20T05:16:31;96838.16;;;15.14;75.35
61035;BME280;46916;40.564;-7.958;2023-04-20T05:18:32;96849.53;;;15.14;75.67
61035;BME280;46916;40.564;-7.958;2023-04-20T05:20:32;96835.91;;;15.10;76.04
61035;BME280;46916;40.564;-7.958;2023-04-20T05:22:33;96845.44;;;15.11;76.05
61035;BME280;46916;40.564;-7.958;2023-04-20T05:24:34;96846.59;;;15.09;76.01
61035;BME280;46916;40.564;-7.958;2023-04-20T05:26:35;96844.47;;;15.04;75.84
61035;BME280;46916;40.564;-7.958;2023-04-20T05:28:35;96854.69;;;15.07;76.13
61035;BME280;46916;40.564;-7.958;2023-04-20T05:30:36;96851.06;;;15.08;75.98
61035;BME280;46916;40.564;-7.958;2023-04-20T05:32:37;96841.50;;;15.07;75.76
61035;BME280;46916;40.564;-7.958;2023-04-20T05:34:38;96845.97;;;15.07;75.82
61035;BME280;46916;40.564;-7.958;2023-04-20T05:36:39;96855.84;;;15.05;75.77
61035;BME280;46916;40.564;-7.958;2023-04-20T05:38:40;96854.22;;;15.04;75.77
61035;BME280;46916;40.564;-7.958;2023-04-20T05:40:41;96857.50;;;15.06;75.64
61035;BME280;46916;40.564;-7.958;2023-04-20T05:42:42;96854.03;;;15.05;75.86
61035;BME280;46916;40.564;-7.958;2023-04-20T05:44:42;96855.69;;;15.06;75.76
61035;BME280;46916;40.564;-7.958;2023-04-20T05:46:43;96854.69;;;15.07;75.61
61035;BME280;46916;40.564;-7.958;2023-04-20T05:48:44;96863.59;;;15.06;75.63
61035;BME280;46916;40.564;-7.958;2023-04-20T05:50:44;96859.31;;;15.05;75.59
61035;BME280;46916;40.564;-7.958;2023-04-20T05:52:45;96870.53;;;15.07;75.53
61035;BME280;46916;40.564;-7.958;2023-04-20T05:54:46;96868.88;;;15.06;75.56
61035;BME280;46916;40.564;-7.958;2023-04-20T05:56:47;96873.69;;;15.03;75.32
61035;BME280;46916;40.564;-7.958;2023-04-20T05:58:47;96873.19;;;14.99;75.42
61035;BME280;46916;40.564;-7.958;2023-04-20T06:00:48;96887.84;;;15.02;75.48
61035;BME280;46916;40.564;-7.958;2023-04-20T06:02:49;96887.19;;;15.00;75.44
61035;BME280;46916;40.564;-7.958;2023-04-20T06:04:50;96881.75;;;15.01;75.61
61035;BME280;46916;40.564;-7.958;2023-04-20T06:06:51;96874.19;;;14.98;75.83
61035;BME280;46916;40.564;-7.958;2023-04-20T06:08:52;96876.81;;;14.98;75.64
61035;BME280;46916;40.564;-7.958;2023-04-20T06:10:53;96884.56;;;15.00;75.66
61035;BME280;46916;40.564;-7.958;2023-04-20T06:12:57;96888.34;;;14.97;75.65
61035;BME280;46916;40.564;-7.958;2023-04-20T06:14:58;96880.44;;;14.97;75.84
61035;BME280;46916;40.564;-7.958;2023-04-20T06:16:59;96879.13;;;14.93;75.89
61035;BME280;46916;40.564;-7.958;2023-04-20T06:18:59;96887.72;;;14.95;75.70
61035;BME280;46916;40.564;-7.958;2023-04-20T06:21:00;96889.16;;;14.98;75.77
61035;BME280;46916;40.564;-7.958;2023-04-20T06:23:01;96887.84;;;15.02;75.31
61035;BME280;46916;40.564;-7.958;2023-04-20T06:25:02;96889.16;;;14.98;75.05
61035;BME280;46916;40.564;-7.958;2023-04-20T06:27:03;96900.38;;;15.00;74.91
61035;BME280;46916;40.564;-7.958;2023-04-20T06:29:04;96900.72;;;14.97;75.24
61035;BME280;46916;40.564;-7.958;2023-04-20T06:31:04;96895.75;;;15.02;73.81
61035;BME280;46916;40.564;-7.958;2023-04-20T06:33:05;96892.81;;;14.97;73.98
61035;BME280;46916;40.564;-7.958;2023-04-20T06:35:06;96899.91;;;14.96;73.85
61035;BME280;46916;40.564;-7.958;2023-04-20T06:37:08;96895.44;;;14.97;74.10
61035;BME280;46916;40.564;-7.958;2023-04-20T06:39:08;96894.63;;;14.96;74.01
61035;BME280;46916;40.564;-7.958;2023-04-20T06:41:10;96893.13;;;14.94;73.59
61035;BME280;46916;40.564;-7.958;2023-04-20T06:43:11;96897.78;;;14.92;73.59
61035;BME280;46916;40.564;-7.958;2023-04-20T06:45:12;96890.03;;;14.90;73.64
61035;BME280;46916;40.564;-7.958;2023-04-20T06:47:12;96889.84;;;14.92;73.98
61035;BME280;46916;40.564;-7.958;2023-04-20T06:49:13;96894.13;;;14.93;74.07
61035;BME280;46916;40.564;-7.958;2023-04-20T06:51:14;96894.31;;;14.91;74.05
61035;BME280;46916;40.564;-7.958;2023-04-20T06:53:15;96897.94;;;14.90;73.85
61035;BME280;46916;40.564;-7.958;2023-04-20T06:55:16;96881.66;;;14.86;74.05
61035;BME280;46916;40.564;-7.958;2023-04-20T06:57:17;96894.81;;;14.86;73.80
61035;BME280;46916;40.564;-7.958;2023-04-20T06:59:17;96887.06;;;14.85;73.87
61035;BME280;46916;40.564;-7.958;2023-04-20T07:01:19;96900.91;;;14.87;74.40
61035;BME280;46916;40.564;-7.958;2023-04-20T07:03:19;96891.84;;;14.81;74.76
61035;BME280;46916;40.564;-7.958;2023-04-20T07:05:20;96895.16;;;14.83;74.38
61035;BME280;46916;40.564;-7.958;2023-04-20T07:07:21;96900.09;;;14.86;74.36
61035;BME280;46916;40.564;-7.958;2023-04-20T07:09:22;96894.16;;;14.84;73.79
61035;BME280;46916;40.564;-7.958;2023-04-20T07:11:23;96903.69;;;14.85;73.78
61035;BME280;46916;40.564;-7.958;2023-04-20T07:13:24;96900.25;;;14.85;73.58
61035;BME280;46916;40.564;-7.958;2023-04-20T07:15:24;96899.63;;;14.83;73.98
61035;BME280;46916;40.564;-7.958;2023-04-20T07:17:28;96897.63;;;14.85;73.39
61035;BME280;46916;40.564;-7.958;2023-04-20T07:19:29;96899.06;;;14.96;74.04
61035;BME280;46916;40.564;-7.958;2023-04-20T07:21:30;96893.06;;;15.10;73.26
61035;BME280;46916;40.564;-7.958;2023-04-20T07:23:30;96894.22;;;15.16;72.12
61035;BME280;46916;40.564;-7.958;2023-04-20T07:25:31;96894.66;;;15.27;72.44
61035;BME280;46916;40.564;-7.958;2023-04-20T07:27:36;96888.84;;;15.40;71.25
61035;BME280;46916;40.564;-7.958;2023-04-20T07:29:37;96887.59;;;15.51;70.66
61035;BME280;46916;40.564;-7.958;2023-04-20T07:31:38;96884.09;;;15.58;70.97
61035;BME280;46916;40.564;-7.958;2023-04-20T07:33:39;96876.16;;;15.67;70.47
61035;BME280;46916;40.564;-7.958;2023-04-20T07:35:39;96884.16;;;15.81;69.94
61035;BME280;46916;40.564;-7.958;2023-04-20T07:37:40;96880.34;;;15.84;69.37
61035;BME280;46916;40.564;-7.958;2023-04-20T07:39:41;96887.75;;;15.89;69.12
61035;BME280;46916;40.564;-7.958;2023-04-20T07:41:42;96886.00;;;15.96;69.05
61035;BME280;46916;40.564;-7.958;2023-04-20T07:43:43;96889.78;;;16.01;68.61
61035;BME280;46916;40.564;-7.958;2023-04-20T07:45:44;96894.53;;;16.06;68.55
61035;BME280;46916;40.564;-7.958;2023-04-20T07:47:44;96894.53;;;16.06;68.37
61035;BME280;46916;40.564;-7.958;2023-04-20T07:49:46;96898.47;;;16.10;68.27
61035;BME280;46916;40.564;-7.958;2023-04-20T07:51:47;96899.75;;;16.14;68.27
61035;BME280;46916;40.564;-7.958;2023-04-20T07:53:48;96893.31;;;16.17;67.87
61035;BME280;46916;40.564;-7.958;2023-04-20T07:55:51;96894.13;;;16.17;67.93
61035;BME280;46916;40.564;-7.958;2023-04-20T07:57:51;96900.03;;;16.19;67.98
61035;BME280;46916;40.564;-7.958;2023-04-20T07:59:57;96893.31;;;16.17;67.24
61035;BME280;46916;40.564;-7.958;2023-04-20T08:01:59;96899.28;;;16.10;67.28
61035;BME280;46916;40.564;-7.958;2023-04-20T08:04:00;96894.53;;;16.06;67.87
61035;BME280;46916;40.564;-7.958;2023-04-20T08:06:01;96892.72;;;16.06;67.76
61035;BME280;46916;40.564;-7.958;2023-04-20T08:08:02;96892.09;;;16.04;67.69
61035;BME280;46916;40.564;-7.958;2023-04-20T08:10:04;96879.84;;;16.03;68.01
61035;BME280;46916;40.564;-7.958;2023-04-20T08:12:05;96884.50;;;16.01;67.79
61035;BME280;46916;40.564;-7.958;2023-04-20T08:14:06;96882.56;;;15.95;67.74
61035;BME280;46916;40.564;-7.958;2023-04-20T08:16:07;96882.41;;;15.97;67.69
61035;BME280;46916;40.564;-7.958;2023-04-20T08:18:08;96891.44;;;16.02;67.92
61035;BME280;46916;40.564;-7.958;2023-04-20T08:20:08;96882.81;;;16.08;67.08
61035;BME280;46916;40.564;-7.958;2023-04-20T08:22:10;96880.16;;;16.08;67.31
61035;BME280;46916;40.564;-7.958;2023-04-20T08:24:11;96879.31;;;16.08;66.90
61035;BME280;46916;40.564;-7.958;2023-04-20T08:26:16;96886.81;;;16.04;66.33
61035;BME280;46916;40.564;-7.958;2023-04-20T08:28:17;96884.84;;;15.98;66.63
61035;BME280;46916;40.564;-7.958;2023-04-20T08:30:18;96884.84;;;15.98;66.52
61035;BME280;46916;40.564;-7.958;2023-04-20T08:32:19;96888.16;;;16.00;66.48
61035;BME280;46916;40.564;-7.958;2023-04-20T08:34:25;96880.22;;;16.00;66.67
61035;BME280;46916;40.564;-7.958;2023-04-20T08:36:25;96887.16;;;16.01;65.88
61035;BME280;46916;40.564;-7.958;2023-04-20T08:38:27;96882.56;;;15.95;65.79
61035;BME280;46916;40.564;-7.958;2023-04-20T08:40:32;96878.16;;;15.88;66.13
61035;BME280;46916;40.564;-7.958;2023-04-20T08:42:33;96882.94;;;15.92;66.61
61035;BME280;46916;40.564;-7.958;2023-04-20T08:44:34;96884.22;;;15.96;66.55
61035;BME280;46916;40.564;-7.958;2023-04-20T08:46:35;96880.66;;;16.04;66.26
61035;BME280;46916;40.564;-7.958;2023-04-20T08:48:36;96884.91;;;16.13;66.33
61035;BME280;46916;40.564;-7.958;2023-04-20T08:50:40;96888.66;;;16.19;66.05
61035;BME280;46916;40.564;-7.958;2023-04-20T08:52:41;96886.53;;;16.14;65.85
61035;BME280;46916;40.564;-7.958;2023-04-20T08:54:41;96883.56;;;16.17;66.07
61035;BME280;46916;40.564;-7.958;2023-04-20T08:56:44;96887.19;;;16.16;65.74
61035;BME280;46916;40.564;-7.958;2023-04-20T08:58:46;96889.31;;;16.21;65.61
61035;BME280;46916;40.564;-7.958;2023-04-20T09:00:47;96877.75;;;16.22;66.03
61035;BME280;46916;40.564;-7.958;2023-04-20T09:02:53;96875.09;;;16.22;65.80
61035;BME280;46916;40.564;-7.958;2023-04-20T09:05:01;96880.72;;;16.19;66.05
61035;BME280;46916;40.564;-7.958;2023-04-20T09:07:04;96873.34;;;16.14;66.02
61035;BME280;46916;40.564;-7.958;2023-04-20T09:09:09;96876.53;;;16.09;66.39
61035;BME280;46916;40.564;-7.958;2023-04-20T09:11:24;96869.88;;;16.14;66.33
61035;BME280;46916;40.564;-7.958;2023-04-20T09:13:25;96866.88;;;16.17;66.23
61035;BME280;46916;40.564;-7.958;2023-04-20T09:15:30;96875.56;;;16.25;65.72
61035;BME280;46916;40.564;-7.958;2023-04-20T09:17:35;96866.91;;;16.31;65.74
61035;BME280;46916;40.564;-7.958;2023-04-20T09:19:37;96872.66;;;16.35;65.49
61035;BME280;46916;40.564;-7.958;2023-04-20T09:21:47;96864.19;;;16.40;65.64
61035;BME280;46916;40.564;-7.958;2023-04-20T09:24:05;96870.13;;;16.42;65.29
61035;BME280;46916;40.564;-7.958;2023-04-20T09:26:06;96872.13;;;16.40;65.29
61035;BME280;46916;40.564;-7.958;2023-04-20T09:28:07;96871.94;;;16.41;65.57
61035;BME280;46916;40.564;-7.958;2023-04-20T09:30:09;96875.50;;;16.48;65.16
61035;BME280;46916;40.564;-7.958;2023-04-20T09:32:21;96875.59;;;16.55;65.07
61035;BME280;46916;40.564;-7.958;2023-04-20T09:34:23;96869.06;;;16.66;64.64
61035;BME280;46916;40.564;-7.958;2023-04-20T09:36:33;96866.94;;;16.61;63.69
61035;BME280;46916;40.564;-7.958;2023-04-20T09:38:35;96871.25;;;16.62;63.69
61035;BME280;46916;40.564;-7.958;2023-04-20T09:40:36;96869.06;;;16.66;63.80
61035;BME280;46916;40.564;-7.958;2023-04-20T09:42:38;96872.34;;;16.68;63.05
61035;BME280;46916;40.564;-7.958;2023-04-20T09:44:41;96863.03;;;16.72;63.43
61035;BME280;46916;40.564;-7.958;2023-04-20T09:46:44;96866.16;;;16.75;63.19
61035;BME280;46916;40.564;-7.958;2023-04-20T09:48:45;96854.84;;;16.81;63.43
61035;BME280;46916;40.564;-7.958;2023-04-20T09:50:47;96857.84;;;16.93;63.41
61035;BME280;46916;40.564;-7.958;2023-04-20T09:52:49;96859.22;;;17.04;62.93
61035;BME280;46916;40.564;-7.958;2023-04-20T09:54:50;96855.56;;;17.05;62.24
61035;BME280;46916;40.564;-7.958;2023-04-20T09:56:52;96857.66;;;17.09;62.20
61035;BME280;46916;40.564;-7.958;2023-04-20T09:58:54;96854.28;;;17.16;62.58
61035;BME280;46916;40.564;-7.958;2023-04-20T10:00:55;96849.06;;;17.22;62.37
61035;BME280;46916;40.564;-7.958;2023-04-20T10:02:56;96843.97;;;17.21;62.43
61035;BME280;46916;40.564;-7.958;2023-04-20T10:04:58;96852.81;;;17.28;62.17
61035;BME280;46916;40.564;-7.958;2023-04-20T10:07:01;96848.78;;;17.32;62.14
61035;BME280;46916;40.564;-7.958;2023-04-20T10:09:07;96843.53;;;17.39;62.04
61035;BME280;46916;40.564;-7.958;2023-04-20T10:11:08;96844.19;;;17.41;62.08
61035;BME280;46916;40.564;-7.958;2023-04-20T10:13:09;96834.63;;;17.40;62.00
61035;BME280;46916;40.564;-7.958;2023-04-20T10:15:10;96841.28;;;17.36;62.07
61035;BME280;46916;40.564;-7.958;2023-04-20T10:17:11;96834.28;;;17.28;62.04
61035;BME280;46916;40.564;-7.958;2023-04-20T10:19:12;96829.19;;;17.12;62.73
61035;BME280;46916;40.564;-7.958;2023-04-20T10:21:13;96830.94;;;17.04;62.80
61035;BME280;46916;40.564;-7.958;2023-04-20T10:23:14;96833.84;;;17.09;62.84
61035;BME280;46916;40.564;-7.958;2023-04-20T10:25:24;96825.19;;;17.16;62.83
61035;BME280;46916;40.564;-7.958;2023-04-20T10:27:27;96828.16;;;17.27;62.61
61035;BME280;46916;40.564;-7.958;2023-04-20T10:29:28;96821.75;;;17.37;62.69
61035;BME280;46916;40.564;-7.958;2023-04-20T10:31:49;96825.09;;;17.45;62.52
61035;BME280;46916;40.564;-7.958;2023-04-20T10:33:55;96824.72;;;17.48;61.87
61035;BME280;46916;40.564;-7.958;2023-04-20T10:35:56;96823.97;;;17.54;61.97
61035;BME280;46916;40.564;-7.958;2023-04-20T10:37:58;96823.59;;;17.57;61.45